Time;durP1;ratioP1;P1;durP2;ratioP2;P2;SDS_P1;SDS_P2;PMS_P1;PMS_P2;Temp;Humidity;BMP_temperature;BMP_pressure;BME280_temperature;BME280_humidity;BME280_pressure;Samples;Min_cycle;Max_cycle;Signal;HPM_P1;HPM_P2
2023/07/28 00:01:44;;;;;;;7.43;6.73;;;;;;;16.97;88.81;97277.19;5089047;28;20531;-83
2023/07/28 00:04:11;;;;;;;7.40;6.70;;;;;;;17.00;88.55;97273.09;5086858;28;20464;-83
2023/07/28 00:06:38;;;;;;;7.10;6.50;;;;;;;16.95;88.49;97275.78;5089013;28;20583;-83
2023/07/28 00:09:05;;;;;;;7.07;6.47;;;;;;;16.89;88.52;97279.59;5088668;28;20453;-83
2023/07/28 00:11:31;;;;;;;6.40;5.90;;;;;;;16.95;88.15;97287.56;5088719;28;20469;-83
2023/07/28 00:13:58;;;;;;;6.83;6.30;;;;;;;16.96;87.78;97271.97;5088593;28;20453;-83
2023/07/28 00:16:25;;;;;;;6.53;5.83;;;;;;;17.08;87.34;97272.63;5087595;28;20453;-84
2023/07/28 00:18:53;;;;;;;6.20;5.70;;;;;;;17.11;86.66;97272.91;5088415;28;20793;-83
2023/07/28 00:21:20;;;;;;;6.30;5.70;;;;;;;16.98;86.52;97269.81;5086991;28;20504;-83
2023/07/28 00:23:47;;;;;;;5.30;4.90;;;;;;;17.11;85.99;97269.38;5088223;28;20549;-83
2023/07/28 00:26:14;;;;;;;5.27;4.67;;;;;;;17.22;84.44;97265.59;5088289;28;20572;-84
2023/07/28 00:28:40;;;;;;;4.87;4.47;;;;;;;17.43;83.72;97272.84;5088696;28;20547;-83
2023/07/28 00:31:07;;;;;;;5.03;4.63;;;;;;;17.48;83.11;97272.06;5087397;28;20584;-83
2023/07/28 00:33:34;;;;;;;4.80;4.40;;;;;;;17.60;81.71;97269.09;5087493;28;20453;-83
2023/07/28 00:36:03;;;;;;;5.10;4.70;;;;;;;17.49;82.29;97270.16;5087387;28;20977;-83
2023/07/28 00:38:30;;;;;;;5.07;4.67;;;;;;;17.27;82.85;97264.81;5088103;28;20492;-81
2023/07/28 00:40:56;;;;;;;4.73;4.33;;;;;;;17.39;82.57;97263.53;5088170;28;20526;-83
2023/07/28 00:43:23;;;;;;;4.83;4.43;;;;;;;17.27;82.26;97265.63;5088353;28;20457;-84
2023/07/28 00:45:50;;;;;;;4.53;4.20;;;;;;;17.23;82.20;97266.41;5087697;28;20604;-84
2023/07/28 00:48:20;;;;;;;4.37;4.00;;;;;;;17.41;81.55;97264.09;5088793;28;20445;-85
2023/07/28 00:50:48;;;;;;;5.37;4.63;;;;;;;17.44;81.45;97260.00;5088035;28;20547;-84
2023/07/28 00:53:17;;;;;;;4.10;3.80;;;;;;;17.58;80.24;97266.63;5084489;28;20468;-83
2023/07/28 00:55:44;;;;;;;3.97;3.67;;;;;;;17.64;79.35;97256.53;5087381;28;20445;-83
2023/07/28 00:58:10;;;;;;;3.93;3.63;;;;;;;17.61;79.58;97252.41;5088493;28;20449;-83
2023/07/28 01:00:37;;;;;;;3.80;3.50;;;;;;;17.68;78.15;97274.91;5088426;28;20552;-83
2023/07/28 01:03:04;;;;;;;3.83;3.53;;;;;;;17.70;78.24;97267.28;5086786;28;21030;-84
2023/07/28 01:05:36;;;;;;;3.80;3.50;;;;;;;17.69;78.52;97262.06;5088284;28;20487;-83
2023/07/28 01:08:07;;;;;;;3.73;3.40;;;;;;;17.72;78.29;97258.78;5086494;28;20548;-83
2023/07/28 01:10:36;;;;;;;3.47;3.17;;;;;;;18.04;76.49;97266.84;5086772;28;20590;-83
2023/07/28 01:13:03;;;;;;;4.13;3.67;;;;;;;17.88;77.47;97274.19;5087758;28;20487;-83
2023/07/28 01:15:29;;;;;;;4.30;4.00;;;;;;;17.94;78.27;97270.38;5088928;28;20568;-83
2023/07/28 01:17:56;;;;;;;4.20;3.80;;;;;;;17.74;79.42;97273.88;5089644;28;20483;-84
2023/07/28 01:20:24;;;;;;;5.00;4.60;;;;;;;17.82;79.25;97271.72;5089134;28;20434;-84
2023/07/28 01:23:06;;;;;;;4.77;4.30;;;;;;;17.63;80.39;97276.78;5088984;28;20437;-84
2023/07/28 01:25:41;;;;;;;4.87;4.47;;;;;;;17.67;80.59;97275.19;5086605;28;20476;-83
2023/07/28 01:28:10;;;;;;;4.70;4.30;;;;;;;17.52;80.63;97269.63;5090879;28;20463;-83
2023/07/28 01:30:37;;;;;;;4.93;4.60;;;;;;;17.54;80.81;97267.44;5094362;28;20872;-83
2023/07/28 01:33:07;;;;;;;4.93;4.53;;;;;;;17.33;81.55;97263.75;5102795;28;20453;-84
2023/07/28 01:35:33;;;;;;;5.33;4.93;;;;;;;17.22;81.62;97268.31;5105227;28;20485;-83
2023/07/28 01:38:00;;;;;;;4.43;4.13;;;;;;;17.09;81.54;97266.06;5103899;28;20445;-83
2023/07/28 01:40:27;;;;;;;4.83;4.43;;;;;;;17.16;80.58;97260.38;5091135;28;20473;-83
2023/07/28 01:42:54;;;;;;;4.37;3.97;;;;;;;17.28;80.41;97252.78;5090141;28;20453;-83
2023/07/28 01:45:23;;;;;;;4.80;4.40;;;;;;;17.25;80.02;97259.59;5090568;28;20473;-83
2023/07/28 01:47:49;;;;;;;3.90;3.63;;;;;;;17.29;79.77;97259.88;5090643;28;20536;-83
2023/07/28 01:50:16;;;;;;;6.20;3.80;;;;;;;17.09;80.39;97257.88;5088662;28;20442;-83
2023/07/28 01:52:43;;;;;;;4.07;3.77;;;;;;;17.13;80.35;97257.06;5090530;28;20528;-83
2023/07/28 01:55:10;;;;;;;3.73;3.53;;;;;;;17.30;79.77;97267.84;5090471;28;20468;-83
2023/07/28 01:57:40;;;;;;;4.13;3.73;;;;;;;17.26;79.51;97252.22;5090885;28;20463;-83
2023/07/28 02:00:08;;;;;;;4.27;3.97;;;;;;;17.21;79.18;97258.50;5090910;28;20445;-83
2023/07/28 02:02:36;;;;;;;4.60;4.20;;;;;;;17.12;79.03;97246.41;5090813;28;20542;-83
2023/07/28 02:05:03;;;;;;;4.27;3.53;;;;;;;17.40;78.73;97250.66;5089528;28;20450;-82
2023/07/28 02:07:30;;;;;;;4.00;3.70;;;;;;;17.42;78.32;97249.31;5090952;28;20489;-83
2023/07/28 02:09:57;;;;;;;3.60;3.30;;;;;;;17.38;78.24;97253.66;5091067;28;20453;-83
2023/07/28 02:12:23;;;;;;;4.07;3.77;;;;;;;17.28;78.29;97253.59;5089795;28;20528;-83
2023/07/28 02:14:51;;;;;;;4.00;3.70;;;;;;;17.37;77.79;97254.75;5090218;28;20445;-83
2023/07/28 02:17:18;;;;;;;3.20;3.00;;;;;;;17.40;77.95;97254.22;5090944;28;21018;-83
2023/07/28 02:19:47;;;;;;;3.20;3.00;;;;;;;17.42;77.83;97253.97;5089667;28;20480;-83
2023/07/28 02:22:14;;;;;;;3.30;3.00;;;;;;;17.48;77.43;97249.34;5090556;28;20469;-83
2023/07/28 02:24:40;;;;;;;3.83;3.53;;;;;;;17.72;76.67;97250.59;5090765;28;20479;-83
2023/07/28 02:27:07;;;;;;;3.30;3.10;;;;;;;17.96;75.41;97254.50;5089359;28;20592;-84
2023/07/28 02:29:34;;;;;;;3.77;3.47;;;;;;;18.02;75.37;97256.16;5090694;28;20448;-83
2023/07/28 02:32:01;;;;;;;3.40;3.20;;;;;;;18.03;75.29;97252.34;5089568;28;20473;-84
2023/07/28 02:34:27;;;;;;;5.23;3.70;;;;;;;18.05;76.04;97252.91;5088937;28;20448;-82
2023/07/28 02:36:55;;;;;;;4.20;3.50;;;;;;;18.15;75.93;97251.28;5089331;28;20544;-84
2023/07/28 02:39:22;;;;;;;3.07;2.73;;;;;;;17.98;76.13;97255.06;5090145;28;20479;-83
2023/07/28 02:41:49;;;;;;;3.63;3.33;;;;;;;18.00;76.21;97255.63;5090382;28;20544;-84
2023/07/28 02:44:15;;;;;;;3.87;3.53;;;;;;;18.03;75.99;97249.59;5088585;28;20486;-84
2023/07/28 02:46:42;;;;;;;4.00;3.40;;;;;;;18.03;75.61;97257.81;5090459;28;20563;-84
2023/07/28 02:49:08;;;;;;;3.50;3.30;;;;;;;18.16;75.37;97259.22;5088821;28;20260;-84
2023/07/28 02:51:35;;;;;;;3.13;2.93;;;;;;;18.10;75.94;97269.34;5089958;28;20454;-84
2023/07/28 02:54:04;;;;;;;3.90;3.60;;;;;;;18.15;75.41;97265.81;5090322;28;20528;-84
2023/07/28 02:56:34;;;;;;;3.47;3.17;;;;;;;18.02;75.90;97266.31;5090215;28;20457;-83
2023/07/28 02:59:01;;;;;;;3.63;3.33;;;;;;;18.02;75.80;97277.25;5089785;28;20942;-83
2023/07/28 03:01:32;;;;;;;3.60;3.30;;;;;;;18.10;76.01;97269.34;5089954;28;20548;-83
2023/07/28 03:03:59;;;;;;;3.47;3.20;;;;;;;17.26;79.72;97283.13;5088594;28;20535;-83
2023/07/28 03:06:26;;;;;;;3.90;3.60;;;;;;;17.29;80.34;97289.97;5089791;28;20520;-83
2023/07/28 03:08:53;;;;;;;3.93;3.40;;;;;;;17.32;79.09;97283.97;5090005;28;20915;-83
2023/07/28 03:11:21;;;;;;;4.23;3.93;;;;;;;17.34;79.65;97300.97;5089830;28;20475;-83
2023/07/28 03:13:48;;;;;;;4.23;3.80;;;;;;;17.62;78.12;97303.31;5089669;28;20441;-82
2023/07/28 03:16:14;;;;;;;3.30;3.00;;;;;;;17.65;77.96;97307.47;5090096;28;20502;-83
2023/07/28 03:18:41;;;;;;;4.97;3.60;;;;;;;17.84;77.08;97305.94;5086680;28;20481;-82
2023/07/28 03:21:09;;;;;;;4.27;3.83;;;;;;;17.83;77.35;97315.25;5090002;28;20453;-83
2023/07/28 03:23:36;;;;;;;3.80;3.50;;;;;;;17.61;77.65;97322.75;5088511;28;20441;-83
2023/07/28 03:26:03;;;;;;;3.30;3.00;;;;;;;17.90;77.17;97320.47;5089062;28;20477;-82
2023/07/28 03:28:31;;;;;;;5.37;3.60;;;;;;;17.67;77.61;97332.66;5089974;28;20536;-83
2023/07/28 03:30:58;;;;;;;3.67;3.40;;;;;;;17.60;77.97;97337.50;5089595;28;20469;-83
2023/07/28 03:33:24;;;;;;;4.00;3.70;;;;;;;17.36;78.82;97335.19;5087640;28;21481;-83
2023/07/28 03:35:51;;;;;;;3.30;3.10;;;;;;;17.44;78.50;97334.69;5088476;28;20532;-83
2023/07/28 03:38:19;;;;;;;4.30;3.93;;;;;;;17.66;78.13;97331.84;5089803;28;20538;-82
2023/07/28 03:40:45;;;;;;;3.90;3.60;;;;;;;17.65;78.56;97338.41;5089112;28;21002;-82
2023/07/28 03:43:13;;;;;;;6.07;4.30;;;;;;;17.60;78.45;97345.72;5089252;28;20790;-82
2023/07/28 03:45:41;;;;;;;3.73;3.43;;;;;;;17.65;78.30;97354.81;5089240;28;20456;-83
2023/07/28 03:48:08;;;;;;;3.90;3.60;;;;;;;17.82;77.48;97357.41;5088979;28;20488;-83
2023/07/28 03:50:35;;;;;;;4.30;3.90;;;;;;;17.60;78.33;97364.88;5088926;28;20561;-83
2023/07/28 03:53:02;;;;;;;4.83;3.60;;;;;;;17.68;78.13;97361.69;5087117;28;20476;-83
2023/07/28 03:55:28;;;;;;;3.60;3.30;;;;;;;17.64;77.93;97355.06;5088922;28;20481;-82
2023/07/28 03:57:55;;;;;;;4.20;3.80;;;;;;;17.89;77.20;97355.22;5089283;28;20444;-83
2023/07/28 04:00:22;;;;;;;3.50;3.20;;;;;;;17.91;76.32;97355.78;5089179;28;21054;-82
2023/07/28 04:02:50;;;;;;;3.40;3.07;;;;;;;17.88;77.05;97344.53;5088540;28;20449;-82
2023/07/28 04:05:17;;;;;;;3.60;3.30;;;;;;;18.03;76.44;97341.88;5089243;28;20495;-83
2023/07/28 04:07:44;;;;;;;3.43;3.23;;;;;;;18.17;76.07;97339.50;5089903;28;20572;-83
2023/07/28 04:10:11;;;;;;;4.17;3.87;;;;;;;18.48;75.28;97332.19;5089484;28;20496;-82
2023/07/28 04:12:37;;;;;;;3.70;3.40;;;;;;;18.39;74.85;97340.09;5090347;28;20457;-83
2023/07/28 04:15:05;;;;;;;3.60;3.30;;;;;;;18.43;75.18;97339.31;5090477;28;20450;-83
2023/07/28 04:17:32;;;;;;;3.90;3.60;;;;;;;18.29;76.00;97340.06;5089936;28;20453;-83
2023/07/28 04:20:00;;;;;;;6.43;3.90;;;;;;;18.08;76.94;97339.19;5092199;28;21150;-82
2023/07/28 04:22:27;;;;;;;4.10;3.60;;;;;;;18.19;76.57;97329.91;5093962;28;20458;-83
2023/07/28 04:24:54;;;;;;;4.10;3.80;;;;;;;18.28;76.04;97327.47;5105357;28;20441;-83
2023/07/28 04:27:22;;;;;;;3.70;3.40;;;;;;;18.28;76.24;97332.94;5094171;28;20572;-82
2023/07/28 04:29:49;;;;;;;3.70;3.40;;;;;;;18.31;76.31;97326.94;5091003;28;20450;-83
2023/07/28 04:32:16;;;;;;;3.90;3.60;;;;;;;18.17;76.95;97325.78;5087954;28;20484;-82
2023/07/28 04:34:43;;;;;;;4.10;3.70;;;;;;;18.22;76.75;97328.53;5088303;28;20925;-83
2023/07/28 04:37:11;;;;;;;3.50;3.30;;;;;;;18.10;77.25;97332.34;5087956;28;20886;-82
2023/07/28 04:39:37;;;;;;;3.87;3.57;;;;;;;18.29;76.80;97329.94;5089172;28;20448;-83
2023/07/28 04:42:05;;;;;;;4.30;3.90;;;;;;;18.38;75.89;97330.25;5088523;28;20938;-83
2023/07/28 04:44:31;;;;;;;3.60;3.27;;;;;;;18.06;77.53;97313.97;5087345;28;20485;-83
2023/07/28 04:46:58;;;;;;;5.27;4.27;;;;;;;18.24;77.41;97326.34;5087470;28;21042;-83
2023/07/28 04:49:25;;;;;;;4.50;4.10;;;;;;;18.18;77.99;97324.72;5087890;28;21063;-83
2023/07/28 04:51:52;;;;;;;4.90;4.50;;;;;;;18.21;78.05;97337.84;5086271;28;20470;-82
2023/07/28 04:54:20;;;;;;;4.67;4.27;;;;;;;17.99;79.83;97336.13;5088385;28;20453;-82
2023/07/28 04:56:49;;;;;;;4.23;3.80;;;;;;;17.56;83.21;97339.13;5088324;28;20457;-82
2023/07/28 04:59:16;;;;;;;4.80;4.40;;;;;;;17.43;84.29;97337.69;5088606;28;20456;-82
2023/07/28 05:01:43;;;;;;;4.67;4.27;;;;;;;17.18;84.72;97341.06;5086311;28;20508;-81
2023/07/28 05:04:10;;;;;;;4.80;4.40;;;;;;;16.77;86.79;97335.25;5087499;28;20477;-82
2023/07/28 05:06:37;;;;;;;5.03;4.50;;;;;;;16.70;86.44;97344.72;5091449;28;20445;-82
2023/07/28 05:09:03;;;;;;;5.37;4.87;;;;;;;17.05;85.37;97344.22;5092306;28;20469;-82
2023/07/28 05:11:32;;;;;;;5.63;5.13;;;;;;;17.14;84.10;97350.88;5092340;28;20453;-83
2023/07/28 05:13:58;;;;;;;6.13;5.10;;;;;;;17.23;84.21;97360.22;5091558;28;20528;-83
2023/07/28 05:16:25;;;;;;;5.07;4.57;;;;;;;17.03;85.34;97365.53;5091564;28;20540;-82
2023/07/28 05:18:52;;;;;;;5.00;4.60;;;;;;;16.79;86.48;97349.47;5090697;28;20568;-82
2023/07/28 05:21:18;;;;;;;5.33;4.83;;;;;;;16.89;86.84;97356.13;5091035;28;20499;-82
2023/07/28 05:23:45;;;;;;;5.63;5.13;;;;;;;17.01;86.77;97357.59;5090823;28;20541;-82
2023/07/28 05:26:12;;;;;;;5.80;5.30;;;;;;;16.67;86.97;97367.94;5091608;28;20532;-83
2023/07/28 05:28:40;;;;;;;5.20;4.70;;;;;;;16.63;87.06;97369.50;5091622;28;21118;-82
2023/07/28 05:31:07;;;;;;;5.70;5.20;;;;;;;16.56;87.62;97370.81;5091748;28;20638;-82
2023/07/28 05:33:34;;;;;;;6.10;5.67;;;;;;;16.56;88.02;97365.34;5090910;28;20467;-83
2023/07/28 05:36:02;;;;;;;6.20;5.70;;;;;;;16.48;88.17;97363.88;5089313;28;20460;-82
2023/07/28 05:38:29;;;;;;;6.73;6.10;;;;;;;16.51;89.14;97368.84;5091203;28;20927;-82
2023/07/28 05:41:00;;;;;;;6.00;5.40;;;;;;;16.53;88.83;97371.31;5090954;28;20897;-82
2023/07/28 05:43:27;;;;;;;6.57;6.07;;;;;;;16.48;88.73;97368.50;5090699;28;20808;-82
2023/07/28 05:45:55;;;;;;;6.73;6.13;;;;;;;16.72;88.68;97380.81;5091301;28;20560;-82
2023/07/28 05:48:22;;;;;;;7.27;6.67;;;;;;;16.52;88.87;97381.41;5091111;28;20591;-81
2023/07/28 05:50:48;;;;;;;6.73;6.23;;;;;;;16.81;89.01;97378.47;5090695;28;20461;-82
2023/07/28 05:53:15;;;;;;;6.53;6.03;;;;;;;16.86;87.92;97386.72;5089850;28;20937;-82
2023/07/28 05:55:42;;;;;;;6.40;5.90;;;;;;;16.97;87.31;97386.53;5090795;28;20476;-82
2023/07/28 05:58:09;;;;;;;6.77;6.27;;;;;;;17.09;86.56;97386.38;5094885;28;20479;-82
2023/07/28 06:00:36;;;;;;;6.63;6.13;;;;;;;17.17;86.75;97394.13;5091450;28;20473;-82
2023/07/28 06:03:05;;;;;;;6.47;5.97;;;;;;;17.18;86.86;97395.75;5091839;28;20514;-82
2023/07/28 06:05:31;;;;;;;6.63;6.13;;;;;;;17.08;87.14;97395.66;5090314;28;20461;-82
2023/07/28 06:07:58;;;;;;;7.10;6.43;;;;;;;17.26;86.52;97391.69;5091118;28;20485;-82
2023/07/28 06:10:25;;;;;;;7.90;7.20;;;;;;;17.26;86.84;97398.00;5089292;28;20826;-82
2023/07/28 06:12:51;;;;;;;9.00;6.83;;;;;;;17.33;86.49;97395.88;5090445;28;20458;-82
2023/07/28 06:15:18;;;;;;;7.50;6.90;;;;;;;17.31;86.85;97392.56;5089771;28;20940;-82
2023/07/28 06:17:45;;;;;;;6.50;5.97;;;;;;;17.36;86.37;97391.78;5091091;28;20560;-81
2023/07/28 06:20:13;;;;;;;6.70;6.20;;;;;;;17.79;85.37;97390.78;5090209;28;20977;-82
2023/07/28 06:22:40;;;;;;;5.93;5.53;;;;;;;17.63;84.86;97398.00;5090698;28;20449;-82
2023/07/28 06:25:08;;;;;;;5.90;5.50;;;;;;;17.48;85.51;97399.84;5090885;28;20442;-82
2023/07/28 06:27:35;;;;;;;6.23;5.83;;;;;;;17.60;86.01;97397.72;5088156;28;20559;-82
2023/07/28 06:30:02;;;;;;;5.50;5.10;;;;;;;17.92;84.84;97395.75;5089587;28;20530;-82
2023/07/28 06:32:29;;;;;;;5.40;5.00;;;;;;;17.79;85.25;97401.72;5090393;28;20496;-82
2023/07/28 06:34:55;;;;;;;6.07;5.53;;;;;;;17.74;85.23;97404.44;5090547;28;21033;-82
2023/07/28 06:37:23;;;;;;;5.30;4.90;;;;;;;17.71;85.87;97405.78;5090562;28;20501;-82
2023/07/28 06:39:51;;;;;;;5.70;5.30;;;;;;;17.66;86.09;97418.59;5090078;28;20922;-82
2023/07/28 06:42:23;;;;;;;5.13;4.80;;;;;;;17.79;86.36;97424.44;5088198;28;20457;-82
2023/07/28 06:44:50;;;;;;;5.40;5.00;;;;;;;17.76;86.42;97405.00;5090664;28;20460;-82
2023/07/28 06:47:17;;;;;;;4.87;4.50;;;;;;;17.84;86.51;97420.94;5089804;28;20452;-82
2023/07/28 06:49:44;;;;;;;5.97;5.53;;;;;;;17.92;86.16;97428.63;5090488;28;20469;-82
2023/07/28 06:52:11;;;;;;;5.20;4.80;;;;;;;17.77;86.42;97415.69;5089958;28;20528;-81
2023/07/28 06:54:40;;;;;;;4.33;4.03;;;;;;;18.36;84.97;97414.63;5089927;28;20449;-82
2023/07/28 06:57:07;;;;;;;6.47;5.90;;;;;;;18.42;83.60;97413.56;5090066;28;20464;-83
2023/07/28 06:59:34;;;;;;;6.10;5.70;;;;;;;18.41;83.83;97420.13;5089007;28;20457;-82
2023/07/28 07:02:01;;;;;;;5.17;4.80;;;;;;;18.68;83.32;97420.81;5090557;28;20457;-81
2023/07/28 07:04:28;;;;;;;5.10;4.80;;;;;;;18.51;83.45;97431.16;5088960;28;20530;-82
2023/07/28 07:06:55;;;;;;;6.10;5.50;;;;;;;18.27;84.34;97435.41;5090906;28;21010;-82
2023/07/28 07:09:21;;;;;;;5.73;5.33;;;;;;;18.45;83.70;97430.28;5097431;28;20526;-82
2023/07/28 07:11:49;;;;;;;5.93;5.53;;;;;;;18.70;82.28;97432.34;5098759;28;20455;-82
2023/07/28 07:14:16;;;;;;;5.77;5.27;;;;;;;18.65;83.29;97437.78;5100494;28;20473;-83
2023/07/28 07:16:43;;;;;;;4.97;4.63;;;;;;;19.31;81.13;97432.44;5091672;28;20473;-82
2023/07/28 07:19:10;;;;;;;4.70;4.30;;;;;;;19.22;80.86;97439.56;5089379;28;20449;-83
2023/07/28 07:21:37;;;;;;;5.40;4.33;;;;;;;19.31;80.62;97435.19;5090657;28;20504;-83
2023/07/28 07:24:04;;;;;;;5.33;4.93;;;;;;;19.02;80.74;97431.31;5088293;28;20483;-82
2023/07/28 07:26:31;;;;;;;4.50;4.20;;;;;;;19.39;80.38;97440.16;5088718;28;20452;-83
2023/07/28 07:29:00;;;;;;;4.73;4.40;;;;;;;19.31;79.63;97432.44;5088778;28;20493;-83
2023/07/28 07:31:27;;;;;;;3.93;3.60;;;;;;;19.28;79.91;97445.88;5089409;28;21144;-82
2023/07/28 07:33:53;;;;;;;5.00;4.60;;;;;;;19.07;81.80;97439.56;5089021;28;20712;-83
2023/07/28 07:36:20;;;;;;;4.40;4.00;;;;;;;19.20;81.33;97446.44;5089591;28;20448;-82
2023/07/28 07:38:48;;;;;;;4.30;4.00;;;;;;;19.60;79.46;97443.75;5088282;28;20539;-82
2023/07/28 07:41:19;;;;;;;4.10;3.80;;;;;;;20.01;77.73;97439.06;5089692;28;20466;-82
2023/07/28 07:43:46;;;;;;;5.20;4.53;;;;;;;19.76;77.96;97450.06;5090017;28;20544;-82
2023/07/28 07:46:14;;;;;;;3.63;3.43;;;;;;;20.26;77.17;97451.06;5089696;28;20787;-82
2023/07/28 07:48:41;;;;;;;4.97;3.90;;;;;;;20.03;77.14;97458.81;5089346;28;20482;-82
2023/07/28 07:51:08;;;;;;;4.00;3.70;;;;;;;19.84;77.48;97457.72;5090082;28;20499;-82
2023/07/28 07:53:36;;;;;;;3.97;3.67;;;;;;;19.45;78.99;97458.28;5088998;28;20545;-82
2023/07/28 07:56:03;;;;;;;4.00;3.70;;;;;;;19.66;77.86;97461.88;5089897;28;20438;-82
2023/07/28 07:58:30;;;;;;;4.77;4.47;;;;;;;19.50;78.53;97468.41;5090165;28;20864;-82
2023/07/28 08:00:57;;;;;;;5.30;4.73;;;;;;;19.62;78.56;97468.19;5088717;28;20480;-82
2023/07/28 08:03:25;;;;;;;4.90;4.40;;;;;;;19.84;77.83;97473.38;5088757;28;20474;-81
2023/07/28 08:05:52;;;;;;;4.53;4.17;;;;;;;19.93;77.33;97478.06;5089066;28;20483;-82
2023/07/28 08:08:19;;;;;;;3.83;3.60;;;;;;;20.17;77.22;97481.03;5087052;28;20494;-82
2023/07/28 08:10:47;;;;;;;3.40;3.20;;;;;;;20.07;76.37;97478.34;5088223;28;20470;-82
2023/07/28 08:13:14;;;;;;;4.40;4.00;;;;;;;20.20;75.91;97482.41;5087594;28;20449;-83
2023/07/28 08:15:41;;;;;;;4.10;3.70;;;;;;;19.87;77.15;97487.41;5088435;28;20450;-82
2023/07/28 08:18:08;;;;;;;3.60;3.30;;;;;;;19.78;77.86;97481.66;5087987;28;20460;-82
2023/07/28 08:20:36;;;;;;;3.57;3.37;;;;;;;20.09;77.44;97490.69;5088394;28;21251;-83
2023/07/28 08:23:03;;;;;;;4.10;3.80;;;;;;;20.11;77.15;97490.41;5088345;28;20445;-83
2023/07/28 08:25:29;;;;;;;3.93;3.63;;;;;;;20.19;76.11;97491.75;5087974;28;20543;-83
2023/07/28 08:27:56;;;;;;;4.00;3.70;;;;;;;19.96;77.70;97502.22;5086978;28;20570;-83
2023/07/28 08:30:23;;;;;;;3.60;3.40;;;;;;;19.86;78.20;97488.50;5087560;28;21084;-83
2023/07/28 08:32:50;;;;;;;3.50;3.20;;;;;;;20.63;76.21;97498.28;5087238;28;20457;-83
2023/07/28 08:35:17;;;;;;;3.20;3.00;;;;;;;21.15;74.14;97499.69;5087308;28;20483;-83
2023/07/28 08:37:45;;;;;;;3.00;2.80;;;;;;;21.42;73.67;97505.66;5088139;28;20459;-82
2023/07/28 08:40:13;;;;;;;2.93;2.10;;;;;;;21.51;72.16;97497.59;5091837;28;20551;-83
2023/07/28 08:42:40;;;;;;;1.90;1.73;;;;;;;21.48;71.95;97500.09;5092308;28;20480;-83
2023/07/28 08:45:09;;;;;;;2.20;1.70;;;;;;;21.29;72.27;97509.03;5091100;28;20824;-82
2023/07/28 08:47:36;;;;;;;2.13;2.03;;;;;;;21.49;70.91;97507.25;5091706;28;20453;-83
2023/07/28 08:50:04;;;;;;;2.07;1.97;;;;;;;20.70;73.50;97504.31;5092359;28;20547;-83
2023/07/28 08:52:31;;;;;;;2.37;2.27;;;;;;;20.66;75.17;97510.66;5091709;28;20440;-83
2023/07/28 08:54:59;;;;;;;2.57;2.37;;;;;;;21.10;74.10;97505.25;5091946;28;20453;-83
2023/07/28 08:57:25;;;;;;;2.50;2.30;;;;;;;20.93;73.72;97519.34;5092243;28;20954;-83
2023/07/28 08:59:53;;;;;;;1.70;1.60;;;;;;;20.79;73.98;97516.38;5090514;28;20534;-83
2023/07/28 09:02:20;;;;;;;2.00;1.83;;;;;;;20.86;73.77;97515.25;5091314;28;20583;-83
2023/07/28 09:04:48;;;;;;;2.20;2.00;;;;;;;20.90;73.29;97519.09;5091368;28;20531;-82
2023/07/28 09:07:15;;;;;;;2.13;2.03;;;;;;;20.94;72.43;97522.94;5091775;28;20913;-82
2023/07/28 09:09:42;;;;;;;2.20;2.10;;;;;;;20.97;73.05;97528.69;5091851;28;20503;-83
2023/07/28 09:12:10;;;;;;;1.70;1.60;;;;;;;21.33;70.79;97518.38;5091528;28;21285;-83
2023/07/28 09:14:38;;;;;;;1.90;1.70;;;;;;;21.52;70.39;97509.44;5091380;28;20475;-83
2023/07/28 09:17:09;;;;;;;2.47;1.93;;;;;;;21.67;68.29;97512.09;5090102;28;20515;-83
2023/07/28 09:19:50;;;;;;;1.90;1.70;;;;;;;22.45;65.98;97511.97;5091520;28;20526;-83
2023/07/28 09:22:17;;;;;;;2.63;1.40;;;;;;;22.60;65.08;97500.78;5091315;28;20457;-83
2023/07/28 09:24:45;;;;;;;2.23;2.03;;;;;;;22.62;65.00;97503.25;5091616;28;20812;-83
2023/07/28 09:27:22;;;;;;;2.37;2.03;;;;;;;21.83;66.50;97508.09;5091385;28;20445;-84
2023/07/28 09:29:50;;;;;;;2.00;1.90;;;;;;;21.45;67.40;97516.06;5091489;28;20485;-83
2023/07/28 09:32:17;;;;;;;2.00;1.80;;;;;;;21.34;68.97;97517.25;5089896;28;20575;-84
2023/07/28 09:34:44;;;;;;;1.80;1.70;;;;;;;21.34;67.91;97519.19;5091672;28;20453;-83
2023/07/28 09:37:12;;;;;;;2.00;1.90;;;;;;;21.23;68.27;97509.34;5089027;28;20457;-83
2023/07/28 09:39:40;;;;;;;2.20;2.00;;;;;;;21.61;66.43;97507.72;5090882;28;20465;-83
2023/07/28 09:42:09;;;;;;;2.00;1.90;;;;;;;22.14;65.38;97494.91;5092084;28;20762;-83
2023/07/28 09:44:38;;;;;;;2.00;1.80;;;;;;;22.05;64.63;97497.50;5091530;28;20433;-83
2023/07/28 09:47:04;;;;;;;2.30;2.10;;;;;;;21.64;66.38;97494.19;5092250;28;20444;-83
2023/07/28 09:49:36;;;;;;;2.70;2.50;;;;;;;21.63;66.06;97503.56;5091685;28;20492;-83
2023/07/28 09:52:05;;;;;;;2.23;1.93;;;;;;;22.07;65.87;97500.78;5091513;28;20510;-85
2023/07/28 09:54:35;;;;;;;2.30;2.10;;;;;;;22.23;63.93;97490.41;5090757;28;20495;-86
2023/07/28 09:57:04;;;;;;;2.30;2.07;;;;;;;22.57;63.27;97498.59;5094316;28;21278;-79
2023/07/28 09:59:33;;;;;;;2.00;1.90;;;;;;;22.54;61.72;97493.66;5097909;28;20504;-81
2023/07/28 10:02:02;;;;;;;1.70;1.60;;;;;;;22.24;63.96;97496.75;5102488;28;20923;-80
2023/07/28 10:04:30;;;;;;;3.00;2.03;;;;;;;22.02;64.82;97494.47;5094066;28;20793;-79
2023/07/28 10:06:57;;;;;;;1.80;1.70;;;;;;;21.92;64.30;97503.63;5094056;28;20544;-79
2023/07/28 10:09:25;;;;;;;2.47;2.00;;;;;;;21.68;65.47;97499.97;5090038;28;20546;-80
2023/07/28 10:11:52;;;;;;;2.00;1.90;;;;;;;21.89;64.89;97497.84;5088422;28;20548;-79
2023/07/28 10:14:30;;;;;;;2.03;1.83;;;;;;;21.99;64.56;97506.88;5090628;28;20536;-79
2023/07/28 10:16:58;;;;;;;2.03;1.77;;;;;;;22.18;63.89;97506.19;5090747;28;20531;-79
2023/07/28 10:19:27;;;;;;;1.83;1.73;;;;;;;22.33;62.30;97503.28;5090668;28;20504;-80
2023/07/28 10:22:00;;;;;;;1.90;1.80;;;;;;;21.98;64.57;97505.22;5090418;28;20450;-79
2023/07/28 10:24:51;;;;;;;1.70;1.60;;;;;;;21.81;63.92;97504.81;5090352;28;20489;-80
2023/07/28 10:27:31;;;;;;;2.43;1.87;;;;;;;22.19;63.75;97508.66;5088903;28;20477;-79
2023/07/28 10:29:59;;;;;;;1.77;1.67;;;;;;;22.13;64.16;97512.56;5090208;28;20572;-79
2023/07/28 10:32:29;;;;;;;2.90;1.93;;;;;;;22.01;64.27;97521.22;5089885;28;20468;-79
2023/07/28 10:35:07;;;;;;;1.80;1.70;;;;;;;21.82;64.97;97525.75;5090322;28;20471;-79
2023/07/28 10:37:35;;;;;;;1.60;1.50;;;;;;;21.76;65.29;97519.47;5090164;28;21017;-79
2023/07/28 10:40:30;;;;;;;2.17;1.97;;;;;;;21.62;65.75;97515.69;5089800;28;20556;-81
2023/07/28 10:42:58;;;;;;;1.67;1.57;;;;;;;21.63;65.85;97519.28;5090399;28;20448;-86
2023/07/28 10:45:27;;;;;;;1.60;1.50;;;;;;;21.84;64.42;97523.53;5088590;28;20497;-86
2023/07/28 10:47:55;;;;;;;1.90;1.57;;;;;;;21.68;65.22;97522.00;5090248;28;20541;-87
2023/07/28 10:50:26;;;;;;;1.70;1.60;;;;;;;21.50;65.40;97522.66;5089752;28;20583;-86
2023/07/28 10:52:53;;;;;;;1.80;1.70;;;;;;;21.45;65.37;97529.00;5089696;28;20534;-81
2023/07/28 10:55:21;;;;;;;1.60;1.50;;;;;;;21.41;65.75;97534.28;5089935;28;20533;-84
2023/07/28 10:57:49;;;;;;;1.80;1.70;;;;;;;21.24;66.35;97530.25;5090076;28;20529;-83
2023/07/28 11:00:17;;;;;;;1.73;1.63;;;;;;;21.12;67.49;97533.28;5089722;28;20465;-81
2023/07/28 11:02:45;;;;;;;1.90;1.80;;;;;;;21.18;67.20;97539.59;5085793;28;20886;-79
2023/07/28 11:05:14;;;;;;;1.63;1.40;;;;;;;21.47;67.23;97543.31;5089581;28;20456;-79
2023/07/28 11:07:43;;;;;;;1.83;1.73;;;;;;;21.60;66.62;97537.19;5090019;28;20458;-80
2023/07/28 11:10:11;;;;;;;2.30;2.00;;;;;;;21.31;67.50;97545.34;5088457;28;21007;-79
2023/07/28 11:12:42;;;;;;;2.07;1.83;;;;;;;21.31;67.32;97550.88;5089333;28;20566;-78
2023/07/28 11:15:11;;;;;;;1.60;1.23;;;;;;;21.39;66.95;97542.03;5089669;28;20445;-82
2023/07/28 11:17:39;;;;;;;1.70;1.60;;;;;;;21.72;66.00;97545.13;5089444;28;20460;-80
2023/07/28 11:20:16;;;;;;;1.70;1.43;;;;;;;22.10;64.65;97536.00;5086427;28;21015;-83
2023/07/28 11:22:56;;;;;;;1.60;1.50;;;;;;;22.28;63.39;97536.41;5090018;28;20801;-91
2023/07/28 11:25:23;;;;;;;2.50;1.90;;;;;;;22.37;63.34;97524.47;5089273;28;20510;-85
2023/07/28 11:27:51;;;;;;;2.70;1.80;;;;;;;22.41;63.11;97530.25;5089498;28;20445;-83
2023/07/28 11:30:19;;;;;;;1.60;1.47;;;;;;;22.36;63.31;97536.63;5089505;28;20511;-80
2023/07/28 11:32:48;;;;;;;2.37;1.80;;;;;;;22.52;63.07;97526.25;5087330;28;20480;-81
2023/07/28 11:35:16;;;;;;;1.90;1.60;;;;;;;22.74;62.06;97528.50;5088150;28;20450;-78
2023/07/28 11:37:45;;;;;;;2.03;1.83;;;;;;;23.08;62.01;97536.66;5088665;28;20476;-78